Time;durP1;ratioP1;P1;durP2;ratioP2;P2;SDS_P1;SDS_P2;PMS_P1;PMS_P2;Temp;Humidity;BMP_temperature;BMP_pressure;BME280_temperature;BME280_humidity;BME280_pressure;Samples;Min_cycle;Max_cycle;Signal;HPM_P1;HPM_P2
2024/01/16 00:02:23;;;;;;;14.07;12.75;;;;;;;3.26;66.87;93418.69;5058254;28;20632;-70
2024/01/16 00:04:50;;;;;;;12.40;11.40;;;;;;;3.28;66.61;93405.50;5059020;28;20209;-70
2024/01/16 00:07:19;;;;;;;13.38;12.20;;;;;;;3.27;66.72;93431.19;5058474;28;20201;-70
2024/01/16 00:09:46;;;;;;;12.45;11.35;;;;;;;3.28;66.84;93412.91;5058715;28;20205;-70
2024/01/16 00:12:13;;;;;;;13.45;12.20;;;;;;;3.30;66.82;93408.66;5075400;28;20236;-70
2024/01/16 00:14:40;;;;;;;12.27;11.13;;;;;;;3.30;66.78;93419.56;5058880;28;20205;-70
2024/01/16 00:17:07;;;;;;;13.57;12.38;;;;;;;3.27;67.29;93416.78;5058443;28;20338;-70
2024/01/16 00:19:36;;;;;;;12.77;11.68;;;;;;;3.25;67.38;93416.31;5074483;28;20242;-70
2024/01/16 00:22:04;;;;;;;13.77;12.48;;;;;;;3.25;66.88;93416.31;5058262;28;20205;-70
2024/01/16 00:24:31;;;;;;;13.13;11.95;;;;;;;3.26;67.25;93420.63;5074975;28;20224;-71
2024/01/16 00:26:58;;;;;;;14.32;13.00;;;;;;;3.25;67.90;93421.75;5075077;28;20193;-71
2024/01/16 00:29:25;;;;;;;14.13;12.73;;;;;;;3.27;67.14;93428.47;5075075;28;20198;-71
2024/01/16 00:31:52;;;;;;;12.27;11.18;;;;;;;3.30;67.25;93430.47;5057728;28;20319;-70
2024/01/16 00:34:19;;;;;;;12.60;11.50;;;;;;;3.31;66.35;93432.06;5057499;28;20299;-70
2024/01/16 00:36:48;;;;;;;11.93;10.70;;;;;;;3.35;66.45;93429.44;5074215;28;20254;-70
2024/01/16 00:39:15;;;;;;;12.20;11.00;;;;;;;3.35;66.74;93424.78;5074477;28;20574;-70
2024/01/16 00:41:41;;;;;;;11.90;10.90;;;;;;;3.42;66.20;93439.75;5057744;28;20254;-70
2024/01/16 00:44:08;;;;;;;11.30;10.40;;;;;;;3.46;65.58;93435.97;5057863;28;20269;-70
2024/01/16 00:46:35;;;;;;;11.43;10.23;;;;;;;3.48;66.07;93444.59;5058472;28;20213;-70
2024/01/16 00:49:02;;;;;;;12.00;10.90;;;;;;;3.50;65.82;93425.97;5057936;28;20204;-70
2024/01/16 00:51:29;;;;;;;11.85;10.75;;;;;;;3.52;65.95;93439.25;5057740;28;20205;-70
2024/01/16 00:53:58;;;;;;;11.38;10.35;;;;;;;3.55;65.25;93431.16;5073937;28;20219;-70
2024/01/16 00:56:27;;;;;;;12.45;11.40;;;;;;;3.57;65.39;93444.47;5074441;28;20258;-70
2024/01/16 00:58:55;;;;;;;11.25;10.15;;;;;;;3.53;65.30;93441.63;5057449;28;20204;-70
2024/01/16 01:01:22;;;;;;;12.48;11.38;;;;;;;3.53;65.48;93459.94;5057628;28;20225;-70
2024/01/16 01:03:49;;;;;;;12.13;11.05;;;;;;;3.53;65.82;93462.66;5057412;28;20319;-69
2024/01/16 01:06:16;;;;;;;10.48;9.65;;;;;;;3.56;65.78;93451.84;5057779;28;20254;-69
2024/01/16 01:08:43;;;;;;;11.27;10.30;;;;;;;3.57;66.15;93467.06;5057415;28;20223;-69
2024/01/16 01:11:12;;;;;;;10.88;9.88;;;;;;;3.58;66.19;93465.13;5074534;28;20197;-69
2024/01/16 01:13:39;;;;;;;10.68;9.70;;;;;;;3.58;66.50;93456.94;5057502;28;20193;-69
2024/01/16 01:16:07;;;;;;;11.20;10.20;;;;;;;3.56;66.55;93461.97;5057059;28;20250;-69
2024/01/16 01:18:34;;;;;;;11.45;10.45;;;;;;;3.56;66.69;93459.22;5057814;28;20205;-69
2024/01/16 01:21:01;;;;;;;10.80;9.90;;;;;;;3.57;66.50;93466.25;5057596;28;20215;-69
2024/01/16 01:23:28;;;;;;;11.40;10.40;;;;;;;3.56;66.67;93468.19;5074408;28;20233;-69
2024/01/16 01:25:55;;;;;;;10.65;9.65;;;;;;;3.56;66.51;93426.53;5057245;28;20229;-69
2024/01/16 01:28:23;;;;;;;10.63;9.73;;;;;;;3.57;67.26;93456.16;5057597;28;20193;-69
2024/01/16 01:30:50;;;;;;;9.73;8.93;;;;;;;3.58;66.80;93455.00;5075762;28;20193;-69
2024/01/16 01:33:17;;;;;;;10.70;9.70;;;;;;;3.59;67.05;93447.63;5077553;28;20233;-69
2024/01/16 01:35:44;;;;;;;9.80;8.90;;;;;;;3.59;66.97;93447.63;5061390;28;20255;-68
2024/01/16 01:38:11;;;;;;;9.02;8.13;;;;;;;3.56;67.82;93402.78;5060746;28;20211;-68
2024/01/16 01:40:38;;;;;;;9.20;8.40;;;;;;;3.63;68.44;93426.69;5061006;28;20193;-68
2024/01/16 01:43:20;;;;;;;9.40;8.60;;;;;;;3.67;68.17;93435.78;5060545;28;20240;-68
2024/01/16 01:46:02;;;;;;;9.15;8.35;;;;;;;3.74;67.40;93433.25;5061223;28;20228;-68
2024/01/16 01:48:31;;;;;;;9.35;8.45;;;;;;;3.77;67.63;93457.06;5061121;28;20211;-68
2024/01/16 01:50:58;;;;;;;9.20;8.40;;;;;;;3.77;67.70;93448.09;5060684;28;20201;-68
2024/01/16 01:53:26;;;;;;;8.43;7.63;;;;;;;3.73;67.74;93414.47;5077705;28;20189;-68
2024/01/16 01:55:53;;;;;;;8.35;7.65;;;;;;;3.75;67.89;93451.19;5061550;28;20303;-69
2024/01/16 01:58:20;;;;;;;8.77;7.97;;;;;;;3.80;67.40;93455.56;5077596;28;20201;-68
2024/01/16 02:00:47;;;;;;;8.25;7.55;;;;;;;3.81;67.99;93438.06;5061031;28;20205;-68
2024/01/16 02:03:24;;;;;;;7.97;7.35;;;;;;;3.83;68.52;93465.78;5077189;28;20243;-69
2024/01/16 02:05:51;;;;;;;8.88;8.18;;;;;;;3.83;68.03;93452.94;5077789;28;20204;-69
2024/01/16 02:08:18;;;;;;;8.25;7.57;;;;;;;3.82;68.13;93448.63;5060257;28;20617;-69
2024/01/16 02:10:47;;;;;;;8.40;7.60;;;;;;;3.82;68.16;93436.94;5077598;28;20288;-69
2024/01/16 02:13:14;;;;;;;8.38;7.65;;;;;;;3.86;68.12;93454.19;5077344;28;20192;-69
2024/01/16 02:15:41;;;;;;;8.20;7.50;;;;;;;3.89;68.24;93441.78;5060215;28;20209;-69
2024/01/16 02:18:14;;;;;;;7.93;7.30;;;;;;;3.89;68.63;93461.69;5060405;28;20613;-69
2024/01/16 02:20:44;;;;;;;7.70;7.00;;;;;;;3.88;68.93;93468.25;5060348;28;20235;-70
2024/01/16 02:23:13;;;;;;;7.80;7.20;;;;;;;3.88;69.31;93472.91;5060536;28;20258;-69
2024/01/16 02:25:42;;;;;;;7.15;6.53;;;;;;;3.90;69.61;93460.53;5060077;28;20248;-69
2024/01/16 02:28:09;;;;;;;6.80;6.30;;;;;;;3.96;69.88;93475.50;5059749;28;20205;-69
2024/01/16 02:30:36;;;;;;;6.80;6.20;;;;;;;3.98;69.91;93489.56;5059832;28;20242;-70
2024/01/16 02:33:04;;;;;;;6.30;5.80;;;;;;;4.02;70.23;93476.03;5059693;28;20283;-70
2024/01/16 02:35:31;;;;;;;6.60;6.00;;;;;;;4.06;70.11;93471.44;5060794;28;20219;-70
2024/01/16 02:37:58;;;;;;;6.43;5.80;;;;;;;4.09;70.56;93474.28;5060528;28;20267;-70
2024/01/16 02:40:25;;;;;;;6.57;5.97;;;;;;;4.08;70.92;93486.34;5059932;28;20220;-69
2024/01/16 02:42:53;;;;;;;7.13;6.43;;;;;;;4.02;71.14;93490.44;5058848;28;20604;-69
2024/01/16 02:45:21;;;;;;;9.63;8.82;;;;;;;3.96;71.00;93508.25;5060262;28;20212;-69
2024/01/16 02:47:48;;;;;;;9.80;8.90;;;;;;;3.95;70.40;93520.28;5059935;28;20197;-69
2024/01/16 02:50:14;;;;;;;10.20;9.30;;;;;;;3.93;71.00;93536.22;5052598;28;20193;-69
2024/01/16 02:52:41;;;;;;;9.32;8.52;;;;;;;3.95;71.34;93544.81;5077186;28;20196;-69
2024/01/16 02:55:09;;;;;;;9.25;8.45;;;;;;;3.98;71.62;93537.88;5059357;28;20592;-69
2024/01/16 02:57:36;;;;;;;9.48;8.57;;;;;;;4.00;72.20;93541.06;5059567;28;20205;-69
2024/01/16 03:00:07;;;;;;;7.80;7.10;;;;;;;4.00;73.58;93544.59;5059522;28;20254;-69
2024/01/16 03:02:35;;;;;;;4.80;4.40;;;;;;;4.09;75.91;93547.94;5059449;28;20197;-69
2024/01/16 03:05:04;;;;;;;3.55;3.25;;;;;;;4.26;76.70;93554.22;5060123;28;20266;-69
2024/01/16 03:07:30;;;;;;;3.53;3.22;;;;;;;4.37;78.36;93562.72;5087902;28;20259;-69
2024/01/16 03:09:57;;;;;;;2.90;2.70;;;;;;;4.47;78.49;93576.63;5093011;28;20216;-69
2024/01/16 03:12:24;;;;;;;2.47;2.30;;;;;;;4.55;79.31;93592.06;5059529;28;20259;-69
2024/01/16 03:14:54;;;;;;;2.58;2.38;;;;;;;4.56;79.57;93604.56;5076262;28;20197;-69
2024/01/16 03:17:22;;;;;;;2.60;2.50;;;;;;;4.57;79.95;93617.09;5060031;28;20204;-69
2024/01/16 03:19:49;;;;;;;3.15;2.95;;;;;;;4.58;79.97;93626.06;5076035;28;20267;-69
2024/01/16 03:22:16;;;;;;;3.58;3.38;;;;;;;4.57;80.02;93633.47;5058793;28;20609;-69
2024/01/16 03:24:43;;;;;;;3.38;3.15;;;;;;;4.57;79.66;93640.84;5059657;28;20274;-69
2024/01/16 03:27:10;;;;;;;3.47;3.28;;;;;;;4.53;79.75;93654.41;5059241;28;20201;-69
2024/01/16 03:29:37;;;;;;;3.20;3.00;;;;;;;4.50;79.31;93659.75;5058655;28;20231;-69
2024/01/16 03:32:04;;;;;;;3.35;3.15;;;;;;;4.45;79.06;93663.53;5075457;28;20244;-69
2024/01/16 03:34:33;;;;;;;2.97;2.78;;;;;;;4.41;78.83;93679.03;5075215;28;20258;-69
2024/01/16 03:37:00;;;;;;;2.95;2.75;;;;;;;4.41;78.67;93683.69;5075096;28;20205;-69
2024/01/16 03:39:27;;;;;;;2.80;2.60;;;;;;;4.33;78.61;93682.72;5058371;28;20205;-69
2024/01/16 03:41:54;;;;;;;2.90;2.70;;;;;;;4.32;78.31;93692.84;5059547;28;20205;-69
2024/01/16 03:44:21;;;;;;;2.40;2.30;;;;;;;4.31;77.77;93706.81;5058602;28;20249;-69
2024/01/16 03:46:48;;;;;;;2.50;2.40;;;;;;;4.27;77.36;93706.72;5075576;28;20212;-69
2024/01/16 03:49:14;;;;;;;2.30;2.20;;;;;;;4.25;77.44;93703.56;5074891;28;20193;-69
2024/01/16 03:51:46;;;;;;;2.65;2.45;;;;;;;4.25;77.50;93708.22;5058322;28;20197;-69
2024/01/16 03:54:13;;;;;;;2.25;2.15;;;;;;;4.22;76.96;93712.44;5058643;28;20270;-69
2024/01/16 03:56:40;;;;;;;2.40;2.30;;;;;;;4.17;77.08;93725.50;5058062;28;20205;-69
2024/01/16 03:59:07;;;;;;;2.15;2.05;;;;;;;4.13;76.48;93728.13;5058235;28;20208;-69
2024/01/16 04:01:36;;;;;;;2.00;1.90;;;;;;;4.07;75.89;93737.72;5075876;28;20204;-70
2024/01/16 04:04:06;;;;;;;1.90;1.80;;;;;;;4.02;75.06;93749.63;5057865;28;20201;-72
2024/01/16 04:06:33;;;;;;;2.20;2.10;;;;;;;3.95;75.50;93756.81;5058533;28;20201;-71
2024/01/16 04:09:02;;;;;;;2.00;1.90;;;;;;;3.89;75.70;93764.44;5057883;28;20197;-71
2024/01/16 04:11:30;;;;;;;2.00;1.90;;;;;;;3.84;76.04;93773.63;5058126;28;20202;-71
2024/01/16 04:13:57;;;;;;;1.90;1.80;;;;;;;3.75;75.92;93769.47;5058629;28;20254;-71
2024/01/16 04:16:24;;;;;;;1.80;1.70;;;;;;;3.72;75.84;93773.66;5058623;28;20255;-71
2024/01/16 04:18:50;;;;;;;1.98;1.88;;;;;;;3.69;75.91;93777.06;5058092;28;20204;-71
2024/01/16 04:21:17;;;;;;;1.80;1.70;;;;;;;3.68;75.63;93777.41;5058194;28;20194;-71
2024/01/16 04:23:46;;;;;;;2.00;1.90;;;;;;;3.68;75.01;93777.41;5057935;28;20258;-72
2024/01/16 04:26:14;;;;;;;1.70;1.60;;;;;;;3.67;74.79;93803.06;5058093;28;20221;-70
2024/01/16 04:28:42;;;;;;;2.00;1.90;;;;;;;3.62;75.09;93796.69;5058639;28;20258;-70
2024/01/16 04:31:11;;;;;;;1.80;1.70;;;;;;;3.59;75.10;93786.50;5057725;28;20209;-71
2024/01/16 04:33:38;;;;;;;1.80;1.70;;;;;;;3.48;75.32;93796.22;5058479;28;20196;-71
2024/01/16 04:36:06;;;;;;;1.80;1.70;;;;;;;3.48;75.57;93803.63;5057488;28;20690;-70
2024/01/16 04:38:33;;;;;;;1.92;1.83;;;;;;;3.50;75.38;93795.91;5058095;28;20197;-71
2024/01/16 04:41:02;;;;;;;2.17;2.08;;;;;;;3.52;75.35;93805.34;5057565;28;20605;-75
2024/01/16 04:43:31;;;;;;;2.03;1.92;;;;;;;3.50;75.42;93809.53;5057430;28;20205;-75
2024/01/16 04:45:57;;;;;;;1.80;1.70;;;;;;;3.47;74.48;93827.38;5057630;28;20221;-75
2024/01/16 04:48:24;;;;;;;1.80;1.70;;;;;;;3.50;74.33;93842.25;5057900;28;20204;-75
2024/01/16 04:50:51;;;;;;;1.90;1.80;;;;;;;3.49;73.89;93848.84;5057649;28;20201;-74
2024/01/16 04:53:19;;;;;;;1.70;1.60;;;;;;;3.44;73.47;93858.03;5075218;28;20270;-74
2024/01/16 04:55:46;;;;;;;1.70;1.60;;;;;;;3.44;74.12;93863.47;5057536;28;20216;-74
2024/01/16 04:58:13;;;;;;;1.75;1.65;;;;;;;3.40;73.82;93872.66;5058146;28;20212;-75
2024/01/16 05:00:41;;;;;;;1.70;1.60;;;;;;;3.36;73.78;93878.00;5057542;28;20200;-75
2024/01/16 05:03:09;;;;;;;1.33;1.33;;;;;;;3.36;74.41;93884.22;5075151;28;20200;-72
2024/01/16 05:05:38;;;;;;;1.40;1.40;;;;;;;3.35;73.83;93888.09;5076363;28;20212;-73
2024/01/16 05:08:05;;;;;;;1.50;1.40;;;;;;;3.35;74.25;93898.22;5062018;28;20254;-73
2024/01/16 05:10:32;;;;;;;1.70;1.60;;;;;;;3.32;74.01;93907.84;5078335;28;20197;-73
2024/01/16 05:12:59;;;;;;;1.40;1.30;;;;;;;3.32;73.84;93917.97;5061614;28;20269;-73
2024/01/16 05:15:26;;;;;;;2.00;1.90;;;;;;;3.29;73.79;93919.41;5061154;28;20205;-73
2024/01/16 05:17:55;;;;;;;1.60;1.50;;;;;;;3.32;73.31;93929.66;5078731;28;20185;-73
2024/01/16 05:20:22;;;;;;;1.85;1.75;;;;;;;3.33;73.03;93936.69;5060924;28;20431;-73
2024/01/16 05:22:49;;;;;;;1.90;1.80;;;;;;;3.33;73.19;93947.59;5061642;28;20211;-69
2024/01/16 05:25:18;;;;;;;1.90;1.80;;;;;;;3.34;72.93;93957.38;5077984;28;20465;-71
2024/01/16 05:27:44;;;;;;;1.70;1.60;;;;;;;3.33;72.30;93963.94;5078525;28;20212;-71
2024/01/16 05:30:11;;;;;;;1.50;1.40;;;;;;;3.33;71.77;93974.84;5078428;28;20205;-71
2024/01/16 05:32:39;;;;;;;1.60;1.50;;;;;;;3.34;71.23;93979.19;5078407;28;20549;-71
2024/01/16 05:35:09;;;;;;;1.50;1.40;;;;;;;3.32;70.57;93973.25;5061753;28;20201;-71
2024/01/16 05:37:36;;;;;;;2.00;1.90;;;;;;;3.33;70.97;93982.22;5061253;28;20200;-71
2024/01/16 05:40:05;;;;;;;1.67;1.58;;;;;;;3.36;71.21;94001.44;5060758;28;20647;-69
2024/01/16 05:42:32;;;;;;;2.10;2.00;;;;;;;3.52;71.06;94006.28;5077740;28;20292;-69
2024/01/16 05:44:59;;;;;;;2.35;1.85;;;;;;;3.59;70.14;94018.25;5061494;28;20220;-70
2024/01/16 05:47:27;;;;;;;2.10;1.90;;;;;;;3.67;69.73;94016.59;5078057;28;20598;-70
2024/01/16 05:49:55;;;;;;;1.80;1.70;;;;;;;3.72;69.13;94019.09;5078211;28;20284;-70
2024/01/16 05:52:24;;;;;;;1.40;1.30;;;;;;;3.85;68.51;94031.66;5060862;28;20255;-70
2024/01/16 05:54:51;;;;;;;1.60;1.50;;;;;;;3.90;67.35;94032.56;5061189;28;20205;-70
2024/01/16 05:57:18;;;;;;;1.75;1.65;;;;;;;3.89;67.51;94039.97;5061400;28;20189;-70
2024/01/16 05:59:45;;;;;;;1.83;1.73;;;;;;;3.88;67.09;94054.72;5061449;28;20197;-69
2024/01/16 06:02:12;;;;;;;1.95;1.85;;;;;;;3.88;67.18;94060.16;5061029;28;20230;-69
2024/01/16 06:04:39;;;;;;;1.90;1.80;;;;;;;3.73;66.44;94056.13;5060510;28;20341;-71
2024/01/16 06:07:07;;;;;;;2.10;2.00;;;;;;;3.58;67.19;94060.28;5078285;28;20189;-71
2024/01/16 06:09:39;;;;;;;2.10;2.00;;;;;;;3.53;67.52;94062.41;5060712;28;20212;-71
2024/01/16 06:12:08;;;;;;;2.70;2.50;;;;;;;3.42;67.16;94070.19;5061336;28;20197;-71
2024/01/16 06:14:35;;;;;;;2.22;2.13;;;;;;;3.34;67.72;94071.03;5060764;28;20254;-71
2024/01/16 06:17:03;;;;;;;2.25;2.15;;;;;;;3.35;67.55;94081.63;5060399;28;20262;-71
2024/01/16 06:19:30;;;;;;;2.15;2.05;;;;;;;3.34;67.35;94099.09;5060407;28;20209;-71
2024/01/16 06:21:57;;;;;;;2.15;2.05;;;;;;;3.33;67.41;94111.13;5077791;28;20200;-71
2024/01/16 06:24:24;;;;;;;2.20;2.10;;;;;;;3.36;67.09;94115.13;5060318;28;20238;-70
2024/01/16 06:26:53;;;;;;;2.10;2.00;;;;;;;3.38;67.29;94119.13;5076909;28;20216;-70
2024/01/16 06:29:20;;;;;;;1.95;1.85;;;;;;;3.41;66.55;94125.81;5060344;28;20201;-70
2024/01/16 06:31:47;;;;;;;2.10;1.90;;;;;;;3.44;66.67;94124.38;5060136;28;20224;-70
2024/01/16 06:34:14;;;;;;;1.73;1.63;;;;;;;3.37;67.00;94131.13;5060058;28;20234;-70
2024/01/16 06:36:43;;;;;;;1.50;1.40;;;;;;;3.30;67.60;94139.03;5060624;28;20677;-70
2024/01/16 06:39:13;;;;;;;2.03;1.92;;;;;;;3.30;67.19;94144.47;5060280;28;20201;-70
2024/01/16 06:41:41;;;;;;;3.85;3.00;;;;;;;3.25;65.68;94147.41;5077252;28;20177;-70
2024/01/16 06:44:09;;;;;;;3.42;2.70;;;;;;;3.13;64.90;94160.94;5059654;28;20238;-70
2024/01/16 06:46:36;;;;;;;1.65;1.55;;;;;;;3.08;64.86;94170.09;5060212;28;20228;-70
2024/01/16 06:49:03;;;;;;;1.63;1.52;;;;;;;3.05;64.88;94168.03;5059847;28;20209;-70
2024/01/16 06:51:30;;;;;;;1.40;1.33;;;;;;;3.08;64.89;94177.47;5060301;28;20250;-70
2024/01/16 06:53:57;;;;;;;1.60;1.50;;;;;;;3.11;64.99;94188.50;5059942;28;20200;-70
2024/01/16 06:56:24;;;;;;;1.80;1.70;;;;;;;3.10;64.88;94205.19;5059631;28;20263;-70
2024/01/16 06:58:51;;;;;;;1.73;1.63;;;;;;;3.11;65.05;94218.47;5060268;28;20267;-70
2024/01/16 07:01:20;;;;;;;1.60;1.50;;;;;;;3.11;65.31;94218.47;5077277;28;20197;-70
2024/01/16 07:03:47;;;;;;;2.53;2.33;;;;;;;3.08;64.97;94219.13;5077732;28;20193;-70
2024/01/16 07:06:14;;;;;;;3.10;2.90;;;;;;;3.06;64.87;94215.94;5059240;28;20221;-70
2024/01/16 07:08:41;;;;;;;3.35;3.10;;;;;;;3.10;65.29;94235.16;5075890;28;20193;-70
2024/01/16 07:11:12;;;;;;;3.13;2.92;;;;;;;3.12;65.06;94241.06;5076319;28;20212;-70
2024/01/16 07:13:39;;;;;;;3.22;2.92;;;;;;;3.16;65.24;94250.22;5059573;28;20194;-70
2024/01/16 07:16:06;;;;;;;3.50;3.20;;;;;;;3.18;65.08;94271.69;5059341;28;20231;-70
2024/01/16 07:18:35;;;;;;;2.97;2.67;;;;;;;3.19;64.49;94281.44;5059119;28;20258;-70
2024/01/16 07:21:03;;;;;;;3.05;2.70;;;;;;;3.14;63.96;94282.44;5058949;28;20527;-70
2024/01/16 07:23:30;;;;;;;2.95;2.75;;;;;;;3.16;64.51;94282.09;5059616;28;20208;-70
2024/01/16 07:25:57;;;;;;;2.47;2.28;;;;;;;3.10;63.73;94295.09;5058888;28;20231;-70
2024/01/16 07:28:24;;;;;;;2.42;2.28;;;;;;;3.09;63.83;94294.31;5058294;28;20205;-70
2024/01/16 07:30:53;;;;;;;2.05;1.95;;;;;;;3.05;63.11;94303.44;5058812;28;20201;-70
2024/01/16 07:33:20;;;;;;;2.45;2.25;;;;;;;3.02;63.68;94302.19;5040086;28;20241;-70
2024/01/16 07:35:49;;;;;;;3.20;2.90;;;;;;;3.05;64.10;94315.16;5039275;28;20198;-70
2024/01/16 07:38:16;;;;;;;3.60;3.30;;;;;;;3.04;63.96;94318.97;5038531;28;20202;-69
2024/01/16 07:40:43;;;;;;;2.90;2.70;;;;;;;3.07;63.96;94323.00;5038826;28;20198;-69
2024/01/16 07:43:10;;;;;;;3.75;3.45;;;;;;;3.07;63.98;94310.16;5038856;28;20202;-70
2024/01/16 07:45:37;;;;;;;3.88;3.45;;;;;;;3.11;64.18;94319.28;5038987;28;20228;-70
2024/01/16 07:48:05;;;;;;;3.47;3.17;;;;;;;3.13;63.79;94325.22;5056026;28;20206;-70
2024/01/16 07:50:31;;;;;;;3.08;2.80;;;;;;;3.13;63.98;94335.34;5039593;28;20197;-69
2024/01/16 07:53:00;;;;;;;3.80;3.40;;;;;;;3.14;64.06;94339.66;5038639;28;20210;-69
2024/01/16 07:55:30;;;;;;;3.60;3.30;;;;;;;3.16;63.85;94350.22;5055791;28;20185;-69
2024/01/16 07:57:58;;;;;;;4.05;3.75;;;;;;;3.17;64.37;94338.22;5038889;28;20194;-70
2024/01/16 08:00:27;;;;;;;4.15;3.85;;;;;;;3.19;64.04;94353.09;5038997;28;20267;-70
2024/01/16 08:02:54;;;;;;;4.13;3.83;;;;;;;3.20;64.48;94343.03;5038926;28;20208;-70
2024/01/16 08:05:24;;;;;;;4.82;4.43;;;;;;;3.20;64.16;94352.00;5038522;28;20258;-70
2024/01/16 08:07:51;;;;;;;3.03;2.83;;;;;;;3.22;63.77;94357.91;5038251;28;20570;-70
2024/01/16 08:10:20;;;;;;;3.90;3.60;;;;;;;3.24;63.91;94372.03;5038216;28;20228;-70
2024/01/16 08:12:47;;;;;;;5.35;4.95;;;;;;;3.25;64.23;94375.53;5038157;28;20218;-72
2024/01/16 08:15:14;;;;;;;12.60;11.60;;;;;;;3.19;63.77;94374.91;5038419;28;20636;-70
2024/01/16 08:17:41;;;;;;;9.27;8.55;;;;;;;3.18;63.17;94388.84;5038364;28;20585;-70
2024/01/16 08:20:10;;;;;;;2.85;2.65;;;;;;;3.22;64.04;94398.78;5038102;28;20197;-70
2024/01/16 08:22:37;;;;;;;2.40;2.20;;;;;;;3.25;63.58;94416.41;5038490;28;20206;-70
2024/01/16 08:25:05;;;;;;;1.88;1.77;;;;;;;3.19;63.10;94409.53;5038023;28;20626;-70
2024/01/16 08:27:34;;;;;;;2.38;2.17;;;;;;;3.15;63.23;94414.81;5038721;28;20226;-70
2024/01/16 08:30:01;;;;;;;2.40;2.20;;;;;;;3.14;63.02;94418.66;5054315;28;20259;-70
2024/01/16 08:32:28;;;;;;;3.60;3.30;;;;;;;3.13;63.18;94426.06;5065984;28;20232;-70
2024/01/16 08:34:55;;;;;;;2.67;2.47;;;;;;;3.16;63.37;94432.78;5075161;28;20181;-70
2024/01/16 08:37:22;;;;;;;3.13;2.92;;;;;;;3.12;63.15;94432.63;5058062;28;20205;-70
2024/01/16 08:39:49;;;;;;;2.20;2.00;;;;;;;3.08;62.63;94445.28;5058383;28;20228;-70
2024/01/16 08:42:17;;;;;;;2.40;2.20;;;;;;;3.13;63.24;94445.13;5074761;28;20258;-70
2024/01/16 08:44:46;;;;;;;2.15;2.05;;;;;;;3.14;63.30;94456.81;5058068;28;20209;-70
2024/01/16 08:47:13;;;;;;;1.70;1.60;;;;;;;3.14;62.69;94456.81;5058452;28;20229;-70
2024/01/16 08:49:40;;;;;;;3.03;2.83;;;;;;;3.16;62.88;94459.22;5058161;28;20201;-70
2024/01/16 08:52:07;;;;;;;2.20;2.10;;;;;;;3.12;62.76;94459.88;5057664;28;20197;-70
2024/01/16 08:54:36;;;;;;;3.30;3.00;;;;;;;3.14;62.92;94470.44;5057749;28;20208;-70
2024/01/16 08:57:04;;;;;;;3.40;3.08;;;;;;;3.08;62.99;94479.88;5057433;28;20209;-70
2024/01/16 08:59:31;;;;;;;3.58;3.28;;;;;;;3.12;63.22;94473.50;5057365;28;20231;-68
2024/01/16 09:01:59;;;;;;;3.33;3.13;;;;;;;3.11;62.87;94474.59;5057815;28;20209;-70
2024/01/16 09:04:26;;;;;;;3.85;3.55;;;;;;;3.12;62.82;94475.41;5057233;28;20209;-70
2024/01/16 09:06:53;;;;;;;3.30;3.03;;;;;;;3.16;62.24;94461.94;5057983;28;20212;-70
2024/01/16 09:09:21;;;;;;;2.88;2.67;;;;;;;3.16;62.45;94465.50;5057334;28;20201;-70
2024/01/16 09:11:47;;;;;;;2.40;2.20;;;;;;;3.24;62.63;94474.78;5074395;28;20704;-70
2024/01/16 09:14:15;;;;;;;1.80;1.70;;;;;;;3.31;62.56;94477.84;5057450;28;20205;-70
2024/01/16 09:16:42;;;;;;;2.38;2.08;;;;;;;3.38;62.63;94476.22;5074963;28;20208;-70
2024/01/16 09:19:10;;;;;;;1.70;1.60;;;;;;;3.38;61.52;94489.06;5075596;28;20205;-70
2024/01/16 09:21:37;;;;;;;2.20;2.10;;;;;;;3.39;61.42;94490.66;5057517;28;20201;-71
2024/01/16 09:24:04;;;;;;;2.20;2.10;;;;;;;3.44;61.67;94495.13;5073828;28;20243;-70
2024/01/16 09:26:32;;;;;;;1.85;1.70;;;;;;;3.47;61.32;94491.75;5056962;28;20224;-70
2024/01/16 09:28:59;;;;;;;1.80;1.70;;;;;;;3.43;61.69;94497.06;5074858;28;20207;-70
2024/01/16 09:31:26;;;;;;;3.03;2.83;;;;;;;3.48;61.78;94496.09;5057079;28;20193;-70
2024/01/16 09:33:53;;;;;;;2.13;2.03;;;;;;;3.58;61.89;94488.38;5074161;28;20197;-70
2024/01/16 09:36:22;;;;;;;1.75;1.65;;;;;;;3.67;61.15;94490.28;5057369;28;20205;-71
2024/01/16 09:38:48;;;;;;;1.90;1.80;;;;;;;3.73;60.85;94483.53;5057702;28;20197;-70
2024/01/16 09:41:15;;;;;;;1.70;1.60;;;;;;;3.82;60.40;94485.13;5056953;28;20205;-69
2024/01/16 09:43:43;;;;;;;1.60;1.50;;;;;;;3.93;60.14;94488.31;5074975;28;20200;-71
2024/01/16 09:46:10;;;;;;;1.73;1.63;;;;;;;3.96;59.37;94497.78;5057492;28;20740;-70
2024/01/16 09:48:37;;;;;;;2.17;2.08;;;;;;;4.07;59.35;94509.97;5057350;28;20227;-71
2024/01/16 09:51:05;;;;;;;1.80;1.70;;;;;;;4.15;58.64;94497.41;5074209;28;20223;-71
2024/01/16 09:53:33;;;;;;;1.50;1.35;;;;;;;4.24;57.81;94490.78;5061301;28;20197;-71
2024/01/16 09:56:03;;;;;;;2.10;1.65;;;;;;;4.22;57.84;94503.19;5060538;28;20201;-71
2024/01/16 09:58:33;;;;;;;1.23;1.23;;;;;;;4.25;57.51;94497.06;5071340;28;20209;-71
2024/01/16 10:01:00;;;;;;;1.60;1.50;;;;;;;4.74;58.05;94492.03;5061499;28;20201;-70
2024/01/16 10:03:28;;;;;;;1.60;1.50;;;;;;;5.11;56.52;94484.88;5060344;28;20197;-70
2024/01/16 10:05:55;;;;;;;1.60;1.50;;;;;;;5.40;54.62;94491.41;5060591;28;20246;-70
2024/01/16 10:08:22;;;;;;;1.70;1.60;;;;;;;5.31;53.77;94483.28;5077248;28;20223;-70
2024/01/16 10:10:51;;;;;;;1.88;1.77;;;;;;;5.16;54.73;94486.63;5060915;28;20190;-70
2024/01/16 10:13:18;;;;;;;2.00;1.90;;;;;;;5.18;55.36;94485.13;5077709;28;20190;-70
2024/01/16 10:15:45;;;;;;;1.70;1.60;;;;;;;5.45;54.83;94485.75;5077394;28;20204;-70
2024/01/16 10:18:24;;;;;;;1.40;1.30;;;;;;;5.41;52.46;94482.88;5060266;28;20243;-71
2024/01/16 10:20:52;;;;;;;1.30;1.30;;;;;;;5.25;52.79;94493.63;5060251;28;20215;-71
2024/01/16 10:23:23;;;;;;;1.50;1.40;;;;;;;5.10;52.97;94501.63;5077550;28;20233;-71
2024/01/16 10:28:44;;;;;;;1.30;1.20;;;;;;;4.88;53.30;94510.91;5154970;27;20975;-71
2024/01/16 10:31:13;;;;;;;1.58;1.48;;;;;;;4.69;53.93;94509.41;5153288;27;20260;-71
2024/01/16 10:33:41;;;;;;;1.63;1.52;;;;;;;4.68;54.43;94501.53;5153369;27;20208;-71
2024/01/16 10:36:12;;;;;;;1.58;1.48;;;;;;;4.64;54.88;94501.38;5154322;27;20182;-71
2024/01/16 10:38:40;;;;;;;2.45;1.85;;;;;;;4.74;55.26;94502.94;5154091;27;20213;-71
2024/01/16 10:41:11;;;;;;;2.15;2.00;;;;;;;5.29;55.81;94507.41;5153731;27;20187;-71
2024/01/16 10:43:38;;;;;;;2.30;2.10;;;;;;;5.86;52.63;94495.84;5153747;27;20243;-71
2024/01/16 10:46:13;;;;;;;1.77;1.65;;;;;;;5.73;52.80;94494.19;5154655;27;20252;-71
2024/01/16 10:48:42;;;;;;;2.10;2.00;;;;;;;5.63;53.23;94492.69;5153279;27;20253;-71
2024/01/16 10:51:11;;;;;;;1.98;1.88;;;;;;;5.51;53.37;94495.34;5153638;27;20251;-71
2024/01/16 10:53:40;;;;;;;1.90;1.80;;;;;;;5.62;53.66;94482.06;5153247;27;20186;-71
2024/01/16 10:56:11;;;;;;;2.20;2.00;;;;;;;5.63;52.42;94478.19;5153520;27;20202;-71
2024/01/16 10:58:40;;;;;;;1.70;1.60;;;;;;;5.57;52.38;94488.53;5153510;27;20205;-71
2024/01/16 11:01:12;;;;;;;1.70;1.60;;;;;;;5.45;51.72;94497.50;5153566;27;20265;-71
2024/01/16 11:03:41;;;;;;;1.73;1.63;;;;;;;5.45;52.40;94497.50;5152538;27;20187;-71
2024/01/16 11:06:09;;;;;;;1.80;1.70;;;;;;;5.48;52.47;94502.31;5152934;27;20686;-71
2024/01/16 11:08:37;;;;;;;2.50;2.30;;;;;;;5.44;53.02;94493.13;5152961;27;20237;-71
2024/01/16 11:11:05;;;;;;;2.15;1.98;;;;;;;5.48;53.68;94501.47;5153007;27;20187;-71
2024/01/16 11:13:33;;;;;;;2.00;1.90;;;;;;;5.45;53.77;94505.69;5152924;27;20198;-71
2024/01/16 11:16:00;;;;;;;2.55;2.38;;;;;;;5.36;54.30;94507.69;5152639;27;20219;-71
2024/01/16 11:18:31;;;;;;;3.05;2.25;;;;;;;5.31;54.85;94505.16;5152731;27;20186;-71
2024/01/16 11:20:59;;;;;;;2.88;2.20;;;;;;;5.29;54.86;94502.75;5152821;27;20191;-71
2024/01/16 11:23:26;;;;;;;2.47;2.10;;;;;;;5.18;55.68;94500.75;5152364;27;20233;-72
2024/01/16 11:25:53;;;;;;;2.22;2.08;;;;;;;5.17;57.58;94507.34;5186956;27;20198;-71
2024/01/16 11:28:20;;;;;;;1.90;1.80;;;;;;;5.17;56.50;94502.69;5152496;27;20230;-71
2024/01/16 11:30:47;;;;;;;2.40;2.20;;;;;;;5.09;56.62;94511.75;5152271;27;20255;-71
2024/01/16 11:33:47;;;;;;;2.60;2.40;;;;;;;5.03;56.80;94505.66;5153028;27;20201;-71
2024/01/16 11:36:51;;;;;;;3.90;2.35;;;;;;;4.86;56.37;94518.63;5152831;27;20199;-71
2024/01/16 11:39:20;;;;;;;3.33;3.03;;;;;;;4.76;56.80;94512.44;5143376;27;20289;-71
2024/01/16 11:41:54;;;;;;;3.53;3.22;;;;;;;4.66;57.20;94517.47;5139258;27;20197;-72
2024/01/16 11:44:41;;;;;;;3.10;2.80;;;;;;;4.62;57.85;94519.25;5137995;27;20228;-72
2024/01/16 11:47:08;;;;;;;3.13;2.83;;;;;;;4.70;57.92;94521.13;5138967;27;20207;-72